sensor_id;sensor_type;location;lat;lon;timestamp;temperature;humidity
34829;DHT22;21042;47.620;12.188;2023-08-01T00:01:01;17.50;99.90
34829;DHT22;21042;47.620;12.188;2023-08-01T00:03:29;17.50;99.90
34829;DHT22;21042;47.620;12.188;2023-08-01T00:05:55;17.60;99.90
34829;DHT22;21042;47.620;12.188;2023-08-01T00:08:22;18.10;99.90
34829;DHT22;21042;47.620;12.188;2023-08-01T00:10:49;17.60;99.90
34829;DHT22;21042;47.620;12.188;2023-08-01T00:13:16;17.60;99.90
34829;DHT22;21042;47.620;12.188;2023-08-01T00:15:42;17.60;99.90
34829;DHT22;21042;47.620;12.188;2023-08-01T00:18:29;17.70;99.90
34829;DHT22;21042;47.620;12.188;2023-08-01T00:20:56;17.70;99.90
34829;DHT22;21042;47.620;12.188;2023-08-01T00:23:22;17.70;99.90
34829;DHT22;21042;47.620;12.188;2023-08-01T00:25:49;17.70;99.90
34829;DHT22;21042;47.620;12.188;2023-08-01T00:28:18;17.70;99.90
34829;DHT22;21042;47.620;12.188;2023-08-01T00:30:45;17.60;99.90
34829;DHT22;21042;47.620;12.188;2023-08-01T00:33:12;17.50;99.90
34829;DHT22;21042;47.620;12.188;2023-08-01T00:35:39;17.60;99.90
34829;DHT22;21042;47.620;12.188;2023-08-01T00:38:06;17.60;99.90
34829;DHT22;21042;47.620;12.188;2023-08-01T00:40:33;17.50;99.90
34829;DHT22;21042;47.620;12.188;2023-08-01T00:43:00;17.50;99.90
34829;DHT22;21042;47.620;12.188;2023-08-01T00:45:27;17.50;99.90
34829;DHT22;21042;47.620;12.188;2023-08-01T00:47:56;17.60;99.90
34829;DHT22;21042;47.620;12.188;2023-08-01T00:50:24;17.50;99.90
34829;DHT22;21042;47.620;12.188;2023-08-01T00:52:52;17.60;99.90
34829;DHT22;21042;47.620;12.188;2023-08-01T00:55:19;17.50;99.90
34829;DHT22;21042;47.620;12.188;2023-08-01T00:57:47;17.50;99.90
34829;DHT22;21042;47.620;12.188;2023-08-01T01:00:14;17.50;99.90
34829;DHT22;21042;47.620;12.188;2023-08-01T01:02:41;17.40;99.90
34829;DHT22;21042;47.620;12.188;2023-08-01T01:05:08;17.40;99.90
34829;DHT22;21042;47.620;12.188;2023-08-01T01:07:35;17.40;99.90
34829;DHT22;21042;47.620;12.188;2023-08-01T01:10:03;17.30;99.90
34829;DHT22;21042;47.620;12.188;2023-08-01T01:12:29;17.20;99.90
34829;DHT22;21042;47.620;12.188;2023-08-01T01:14:56;17.10;99.90
34829;DHT22;21042;47.620;12.188;2023-08-01T01:17:23;17.20;99.90
34829;DHT22;21042;47.620;12.188;2023-08-01T01:19:50;17.20;99.90
34829;DHT22;21042;47.620;12.188;2023-08-01T01:22:16;17.20;99.90
34829;DHT22;21042;47.620;12.188;2023-08-01T01:24:45;17.20;99.90
34829;DHT22;21042;47.620;12.188;2023-08-01T01:27:13;17.10;99.90
34829;DHT22;21042;47.620;12.188;2023-08-01T01:29:43;17.20;99.90
34829;DHT22;21042;47.620;12.188;2023-08-01T01:32:11;17.20;99.90
34829;DHT22;21042;47.620;12.188;2023-08-01T01:34:38;17.20;99.90
34829;DHT22;21042;47.620;12.188;2023-08-01T01:37:05;17.30;99.90
34829;DHT22;21042;47.620;12.188;2023-08-01T01:39:32;17.20;99.90
34829;DHT22;21042;47.620;12.188;2023-08-01T01:41:59;17.20;99.90
34829;DHT22;21042;47.620;12.188;2023-08-01T01:44:25;17.10;99.90
34829;DHT22;21042;47.620;12.188;2023-08-01T01:46:52;17.10;99.90
34829;DHT22;21042;47.620;12.188;2023-08-01T01:49:19;17.00;99.90
34829;DHT22;21042;47.620;12.188;2023-08-01T01:51:46;17.00;99.90
34829;DHT22;21042;47.620;12.188;2023-08-01T01:54:12;16.90;99.90
34829;DHT22;21042;47.620;12.188;2023-08-01T01:56:39;16.90;99.90
34829;DHT22;21042;47.620;12.188;2023-08-01T01:59:06;17.00;99.90
34829;DHT22;21042;47.620;12.188;2023-08-01T02:01:33;17.00;99.90
34829;DHT22;21042;47.620;12.188;2023-08-01T02:04:00;17.00;99.90
34829;DHT22;21042;47.620;12.188;2023-08-01T02:06:27;17.10;99.90
34829;DHT22;21042;47.620;12.188;2023-08-01T02:08:54;17.10;99.90
34829;DHT22;21042;47.620;12.188;2023-08-01T02:11:22;17.00;99.90
34829;DHT22;21042;47.620;12.188;2023-08-01T02:13:49;17.00;99.90
34829;DHT22;21042;47.620;12.188;2023-08-01T02:16:16;16.90;99.90
34829;DHT22;21042;47.620;12.188;2023-08-01T02:18:43;16.90;99.90
34829;DHT22;21042;47.620;12.188;2023-08-01T02:21:10;16.80;99.90
34829;DHT22;21042;47.620;12.188;2023-08-01T02:23:37;16.90;99.90
34829;DHT22;21042;47.620;12.188;2023-08-01T02:26:04;16.90;99.90
34829;DHT22;21042;47.620;12.188;2023-08-01T02:28:31;16.90;99.90
34829;DHT22;21042;47.620;12.188;2023-08-01T02:30:57;16.90;99.90
34829;DHT22;21042;47.620;12.188;2023-08-01T02:33:24;16.90;99.90
34829;DHT22;21042;47.620;12.188;2023-08-01T02:35:51;17.00;99.90
34829;DHT22;21042;47.620;12.188;2023-08-01T02:38:18;17.00;99.90
34829;DHT22;21042;47.620;12.188;2023-08-01T02:40:45;17.00;99.90
34829;DHT22;21042;47.620;12.188;2023-08-01T02:43:12;17.00;99.90
34829;DHT22;21042;47.620;12.188;2023-08-01T02:45:41;16.90;99.90
34829;DHT22;21042;47.620;12.188;2023-08-01T02:48:08;17.00;99.90
34829;DHT22;21042;47.620;12.188;2023-08-01T02:50:35;17.00;99.90
34829;DHT22;21042;47.620;12.188;2023-08-01T02:53:04;17.00;99.90
34829;DHT22;21042;47.620;12.188;2023-08-01T02:55:31;17.00;99.90
34829;DHT22;21042;47.620;12.188;2023-08-01T02:57:58;16.90;99.90
34829;DHT22;21042;47.620;12.188;2023-08-01T03:00:25;17.00;99.90
34829;DHT22;21042;47.620;12.188;2023-08-01T03:02:52;16.90;99.90
34829;DHT22;21042;47.620;12.188;2023-08-01T03:05:20;16.90;99.90
34829;DHT22;21042;47.620;12.188;2023-08-01T03:07:46;16.90;99.90
34829;DHT22;21042;47.620;12.188;2023-08-01T03:10:13;17.00;99.90
34829;DHT22;21042;47.620;12.188;2023-08-01T03:12:56;16.90;99.90
34829;DHT22;21042;47.620;12.188;2023-08-01T03:15:22;16.90;99.90
34829;DHT22;21042;47.620;12.188;2023-08-01T03:17:49;16.90;99.90
34829;DHT22;21042;47.620;12.188;2023-08-01T03:20:16;16.90;99.90
34829;DHT22;21042;47.620;12.188;2023-08-01T03:22:43;16.90;99.90
34829;DHT22;21042;47.620;12.188;2023-08-01T03:25:11;16.90;99.90
34829;DHT22;21042;47.620;12.188;2023-08-01T03:27:38;16.90;99.90
34829;DHT22;21042;47.620;12.188;2023-08-01T03:30:05;16.90;99.90
34829;DHT22;21042;47.620;12.188;2023-08-01T03:32:35;16.90;99.90
34829;DHT22;21042;47.620;12.188;2023-08-01T03:35:05;16.80;99.90
34829;DHT22;21042;47.620;12.188;2023-08-01T03:37:32;16.80;99.90
34829;DHT22;21042;47.620;12.188;2023-08-01T03:39:59;16.80;99.90
34829;DHT22;21042;47.620;12.188;2023-08-01T03:42:25;16.80;99.90
34829;DHT22;21042;47.620;12.188;2023-08-01T03:44:52;16.80;99.90
34829;DHT22;21042;47.620;12.188;2023-08-01T03:47:19;16.80;99.90
34829;DHT22;21042;47.620;12.188;2023-08-01T03:49:46;16.80;99.90
34829;DHT22;21042;47.620;12.188;2023-08-01T03:52:14;16.80;99.90
34829;DHT22;21042;47.620;12.188;2023-08-01T03:54:40;16.80;99.90
34829;DHT22;21042;47.620;12.188;2023-08-01T03:57:08;16.80;99.90
34829;DHT22;21042;47.620;12.188;2023-08-01T03:59:34;16.80;99.90
34829;DHT22;21042;47.620;12.188;2023-08-01T04:02:03;16.70;99.90
34829;DHT22;21042;47.620;12.188;2023-08-01T04:04:30;16.70;99.90
34829;DHT22;21042;47.620;12.188;2023-08-01T04:06:58;16.80;99.90
34829;DHT22;21042;47.620;12.188;2023-08-01T04:09:24;16.80;99.90
34829;DHT22;21042;47.620;12.188;2023-08-01T04:11:51;16.80;99.90
34829;DHT22;21042;47.620;12.188;2023-08-01T04:14:18;16.70;99.90
34829;DHT22;21042;47.620;12.188;2023-08-01T04:16:45;16.80;99.90
34829;DHT22;21042;47.620;12.188;2023-08-01T04:19:12;16.70;99.90
34829;DHT22;21042;47.620;12.188;2023-08-01T04:21:39;16.70;99.90
34829;DHT22;21042;47.620;12.188;2023-08-01T04:24:06;16.70;99.90
34829;DHT22;21042;47.620;12.188;2023-08-01T04:26:33;16.70;99.90
34829;DHT22;21042;47.620;12.188;2023-08-01T04:28:59;16.70;99.90
34829;DHT22;21042;47.620;12.188;2023-08-01T04:31:26;16.60;99.90
34829;DHT22;21042;47.620;12.188;2023-08-01T04:33:53;16.50;99.90
34829;DHT22;21042;47.620;12.188;2023-08-01T04:36:20;16.50;99.90
34829;DHT22;21042;47.620;12.188;2023-08-01T04:38:46;16.50;99.90
34829;DHT22;21042;47.620;12.188;2023-08-01T04:41:13;16.50;99.90
34829;DHT22;21042;47.620;12.188;2023-08-01T04:43:40;16.40;99.90
34829;DHT22;21042;47.620;12.188;2023-08-01T04:46:06;16.40;99.90
34829;DHT22;21042;47.620;12.188;2023-08-01T04:48:33;16.40;99.90
34829;DHT22;21042;47.620;12.188;2023-08-01T04:51:00;16.40;99.90
34829;DHT22;21042;47.620;12.188;2023-08-01T04:53:27;16.30;99.90
34829;DHT22;21042;47.620;12.188;2023-08-01T04:55:53;16.30;99.90
34829;DHT22;21042;47.620;12.188;2023-08-01T04:58:20;16.30;99.90
34829;DHT22;21042;47.620;12.188;2023-08-01T05:00:47;16.20;99.90
34829;DHT22;21042;47.620;12.188;2023-08-01T05:03:14;16.20;99.90
34829;DHT22;21042;47.620;12.188;2023-08-01T05:05:41;16.20;99.90
34829;DHT22;21042;47.620;12.188;2023-08-01T05:08:07;16.10;99.90
34829;DHT22;21042;47.620;12.188;2023-08-01T05:10:34;16.10;99.90
34829;DHT22;21042;47.620;12.188;2023-08-01T05:13:01;16.10;99.90
34829;DHT22;21042;47.620;12.188;2023-08-01T05:15:29;16.20;99.90
34829;DHT22;21042;47.620;12.188;2023-08-01T05:17:57;16.10;99.90
34829;DHT22;21042;47.620;12.188;2023-08-01T05:20:24;16.10;99.90
34829;DHT22;21042;47.620;12.188;2023-08-01T05:22:59;16.10;99.90
34829;DHT22;21042;47.620;12.188;2023-08-01T05:25:26;16.10;99.90
34829;DHT22;21042;47.620;12.188;2023-08-01T05:27:53;16.10;99.90
34829;DHT22;21042;47.620;12.188;2023-08-01T05:30:20;16.00;99.90
34829;DHT22;21042;47.620;12.188;2023-08-01T05:32:47;16.00;99.90
34829;DHT22;21042;47.620;12.188;2023-08-01T05:35:14;16.00;99.90
34829;DHT22;21042;47.620;12.188;2023-08-01T05:37:41;16.00;99.90
34829;DHT22;21042;47.620;12.188;2023-08-01T05:40:09;16.00;99.90
34829;DHT22;21042;47.620;12.188;2023-08-01T05:42:36;16.10;99.90
34829;DHT22;21042;47.620;12.188;2023-08-01T05:45:03;16.10;99.90
34829;DHT22;21042;47.620;12.188;2023-08-01T05:47:31;16.10;99.90
34829;DHT22;21042;47.620;12.188;2023-08-01T05:49:57;16.20;99.90
34829;DHT22;21042;47.620;12.188;2023-08-01T05:52:24;16.20;99.90
34829;DHT22;21042;47.620;12.188;2023-08-01T05:54:51;16.20;99.90
34829;DHT22;21042;47.620;12.188;2023-08-01T05:57:18;16.30;99.90
34829;DHT22;21042;47.620;12.188;2023-08-01T05:59:45;16.30;99.90
34829;DHT22;21042;47.620;12.188;2023-08-01T06:02:12;16.20;99.90
34829;DHT22;21042;47.620;12.188;2023-08-01T06:04:39;16.10;99.90
34829;DHT22;21042;47.620;12.188;2023-08-01T06:07:06;16.10;99.90
34829;DHT22;21042;47.620;12.188;2023-08-01T06:09:33;16.00;99.90
34829;DHT22;21042;47.620;12.188;2023-08-01T06:12:00;16.10;99.90
34829;DHT22;21042;47.620;12.188;2023-08-01T06:14:27;16.70;99.90
34829;DHT22;21042;47.620;12.188;2023-08-01T06:16:53;16.10;99.90
34829;DHT22;21042;47.620;12.188;2023-08-01T06:19:20;16.10;99.90
34829;DHT22;21042;47.620;12.188;2023-08-01T06:21:47;16.00;99.90
34829;DHT22;21042;47.620;12.188;2023-08-01T06:24:14;16.10;99.90
34829;DHT22;21042;47.620;12.188;2023-08-01T06:26:40;16.00;99.90
34829;DHT22;21042;47.620;12.188;2023-08-01T06:29:08;16.10;99.90
34829;DHT22;21042;47.620;12.188;2023-08-01T06:31:35;16.10;99.90
34829;DHT22;21042;47.620;12.188;2023-08-01T06:34:01;16.10;99.90
34829;DHT22;21042;47.620;12.188;2023-08-01T06:36:28;16.20;99.90
34829;DHT22;21042;47.620;12.188;2023-08-01T06:38:55;16.30;99.90
34829;DHT22;21042;47.620;12.188;2023-08-01T06:41:22;16.40;99.90
34829;DHT22;21042;47.620;12.188;2023-08-01T06:43:51;16.40;99.90
34829;DHT22;21042;47.620;12.188;2023-08-01T06:46:17;16.40;99.90
34829;DHT22;21042;47.620;12.188;2023-08-01T06:48:44;16.50;99.90
34829;DHT22;21042;47.620;12.188;2023-08-01T06:51:11;16.50;99.90
34829;DHT22;21042;47.620;12.188;2023-08-01T06:53:38;16.60;99.90
34829;DHT22;21042;47.620;12.188;2023-08-01T06:56:04;16.50;99.90
34829;DHT22;21042;47.620;12.188;2023-08-01T06:58:31;16.50;99.90
34829;DHT22;21042;47.620;12.188;2023-08-01T07:00:58;16.50;99.90
34829;DHT22;21042;47.620;12.188;2023-08-01T07:03:24;16.40;99.90
34829;DHT22;21042;47.620;12.188;2023-08-01T07:05:51;16.40;99.90
34829;DHT22;21042;47.620;12.188;2023-08-01T07:08:20;16.30;99.90
34829;DHT22;21042;47.620;12.188;2023-08-01T07:10:48;16.20;99.90
34829;DHT22;21042;47.620;12.188;2023-08-01T07:13:15;16.10;99.90
34829;DHT22;21042;47.620;12.188;2023-08-01T07:15:42;16.10;99.90
34829;DHT22;21042;47.620;12.188;2023-08-01T07:18:09;16.20;99.90
34829;DHT22;21042;47.620;12.188;2023-08-01T07:20:36;16.20;99.90
34829;DHT22;21042;47.620;12.188;2023-08-01T07:23:03;16.20;99.90
34829;DHT22;21042;47.620;12.188;2023-08-01T07:25:29;16.30;99.90
34829;DHT22;21042;47.620;12.188;2023-08-01T07:27:56;16.30;99.90
34829;DHT22;21042;47.620;12.188;2023-08-01T07:30:24;16.20;99.90
34829;DHT22;21042;47.620;12.188;2023-08-01T07:32:51;16.20;99.90
34829;DHT22;21042;47.620;12.188;2023-08-01T07:35:17;16.20;99.90
34829;DHT22;21042;47.620;12.188;2023-08-01T07:37:44;16.10;99.90
34829;DHT22;21042;47.620;12.188;2023-08-01T07:40:11;16.10;99.90
34829;DHT22;21042;47.620;12.188;2023-08-01T07:42:38;16.10;99.90
34829;DHT22;21042;47.620;12.188;2023-08-01T07:45:05;16.10;99.90
34829;DHT22;21042;47.620;12.188;2023-08-01T07:47:32;16.10;99.90
34829;DHT22;21042;47.620;12.188;2023-08-01T07:49:59;16.00;99.90
34829;DHT22;21042;47.620;12.188;2023-08-01T07:52:26;16.10;99.90
34829;DHT22;21042;47.620;12.188;2023-08-01T07:54:53;16.10;99.90
34829;DHT22;21042;47.620;12.188;2023-08-01T07:57:22;16.10;99.90
34829;DHT22;21042;47.620;12.188;2023-08-01T07:59:49;16.10;99.90
34829;DHT22;21042;47.620;12.188;2023-08-01T08:02:16;16.10;99.90
34829;DHT22;21042;47.620;12.188;2023-08-01T08:04:42;16.10;99.90
34829;DHT22;21042;47.620;12.188;2023-08-01T08:07:09;16.20;99.90
34829;DHT22;21042;47.620;12.188;2023-08-01T08:09:36;16.10;99.90
34829;DHT22;21042;47.620;12.188;2023-08-01T08:12:03;16.10;99.90
34829;DHT22;21042;47.620;12.188;2023-08-01T08:14:29;16.20;99.90
34829;DHT22;21042;47.620;12.188;2023-08-01T08:16:56;16.20;99.90
34829;DHT22;21042;47.620;12.188;2023-08-01T08:19:23;16.30;99.90
34829;DHT22;21042;47.620;12.188;2023-08-01T08:21:51;16.30;99.90
34829;DHT22;21042;47.620;12.188;2023-08-01T08:24:19;16.40;99.90
34829;DHT22;21042;47.620;12.188;2023-08-01T08:26:45;16.40;99.90
34829;DHT22;21042;47.620;12.188;2023-08-01T08:29:12;16.50;99.90
34829;DHT22;21042;47.620;12.188;2023-08-01T08:31:39;16.60;99.90
34829;DHT22;21042;47.620;12.188;2023-08-01T08:34:06;16.80;99.90
34829;DHT22;21042;47.620;12.188;2023-08-01T08:36:32;17.00;99.90
34829;DHT22;21042;47.620;12.188;2023-08-01T08:38:59;17.10;99.90
34829;DHT22;21042;47.620;12.188;2023-08-01T08:41:27;17.20;99.90
34829;DHT22;21042;47.620;12.188;2023-08-01T08:43:57;17.30;99.90
34829;DHT22;21042;47.620;12.188;2023-08-01T08:46:29;17.50;99.90
34829;DHT22;21042;47.620;12.188;2023-08-01T08:48:57;17.60;99.90
34829;DHT22;21042;47.620;12.188;2023-08-01T08:51:26;17.70;99.90
34829;DHT22;21042;47.620;12.188;2023-08-01T08:53:56;17.70;99.90
34829;DHT22;21042;47.620;12.188;2023-08-01T08:56:26;17.80;99.90
34829;DHT22;21042;47.620;12.188;2023-08-01T08:58:55;17.80;99.90
34829;DHT22;21042;47.620;12.188;2023-08-01T09:01:22;17.80;99.90
34829;DHT22;21042;47.620;12.188;2023-08-01T09:03:49;17.70;99.90
34829;DHT22;21042;47.620;12.188;2023-08-01T09:06:19;17.80;99.90
34829;DHT22;21042;47.620;12.188;2023-08-01T09:08:51;17.70;99.90
34829;DHT22;21042;47.620;12.188;2023-08-01T09:11:18;17.70;99.90
34829;DHT22;21042;47.620;12.188;2023-08-01T09:13:45;17.60;99.90
34829;DHT22;21042;47.620;12.188;2023-08-01T09:16:14;17.50;99.90
34829;DHT22;21042;47.620;12.188;2023-08-01T09:18:51;17.50;99.90
34829;DHT22;21042;47.620;12.188;2023-08-01T09:21:19;17.50;99.90
34829;DHT22;21042;47.620;12.188;2023-08-01T09:23:46;17.50;99.90
34829;DHT22;21042;47.620;12.188;2023-08-01T09:26:17;17.40;99.90
34829;DHT22;21042;47.620;12.188;2023-08-01T09:28:44;17.50;99.90
34829;DHT22;21042;47.620;12.188;2023-08-01T09:31:28;17.60;99.90
34829;DHT22;21042;47.620;12.188;2023-08-01T09:33:57;17.50;99.90
34829;DHT22;21042;47.620;12.188;2023-08-01T09:36:24;17.50;99.90
34829;DHT22;21042;47.620;12.188;2023-08-01T09:39:02;17.50;99.90
34829;DHT22;21042;47.620;12.188;2023-08-01T09:41:30;17.40;99.90
34829;DHT22;21042;47.620;12.188;2023-08-01T09:43:57;17.30;99.90
34829;DHT22;21042;47.620;12.188;2023-08-01T09:46:24;17.30;99.90
34829;DHT22;21042;47.620;12.188;2023-08-01T09:48:51;17.20;99.90
34829;DHT22;21042;47.620;12.188;2023-08-01T09:51:18;17.20;99.90
34829;DHT22;21042;47.620;12.188;2023-08-01T09:53:55;17.20;99.90
34829;DHT22;21042;47.620;12.188;2023-08-01T09:56:23;17.20;99.90
34829;DHT22;21042;47.620;12.188;2023-08-01T09:58:53;17.30;99.90
34829;DHT22;21042;47.620;12.188;2023-08-01T10:01:23;17.20;99.90
34829;DHT22;21042;47.620;12.188;2023-08-01T10:03:52;17.20;99.90
34829;DHT22;21042;47.620;12.188;2023-08-01T10:06:20;17.30;99.90
34829;DHT22;21042;47.620;12.188;2023-08-01T10:08:49;17.30;99.90
34829;DHT22;21042;47.620;12.188;2023-08-01T10:11:18;17.40;99.90
34829;DHT22;21042;47.620;12.188;2023-08-01T10:13:45;17.50;99.90
34829;DHT22;21042;47.620;12.188;2023-08-01T10:16:13;17.50;99.90
34829;DHT22;21042;47.620;12.188;2023-08-01T10:18:42;17.50;99.90
34829;DHT22;21042;47.620;12.188;2023-08-01T10:21:14;17.50;99.90
34829;DHT22;21042;47.620;12.188;2023-08-01T10:23:41;17.50;99.90
34829;DHT22;21042;47.620;12.188;2023-08-01T10:26:09;17.50;99.90
34829;DHT22;21042;47.620;12.188;2023-08-01T10:28:41;17.50;99.90
34829;DHT22;21042;47.620;12.188;2023-08-01T10:31:12;17.50;99.90
34829;DHT22;21042;47.620;12.188;2023-08-01T10:33:41;17.50;99.90
34829;DHT22;21042;47.620;12.188;2023-08-01T10:36:15;17.60;99.90
34829;DHT22;21042;47.620;12.188;2023-08-01T10:38:52;17.60;99.90
34829;DHT22;21042;47.620;12.188;2023-08-01T10:41:27;17.70;99.90
34829;DHT22;21042;47.620;12.188;2023-08-01T10:46:54;18.10;99.90
34829;DHT22;21042;47.620;12.188;2023-08-01T10:49:37;18.20;99.90
34829;DHT22;21042;47.620;12.188;2023-08-01T10:54:44;18.20;99.90
34829;DHT22;21042;47.620;12.188;2023-08-01T10:57:17;18.30;99.90
34829;DHT22;21042;47.620;12.188;2023-08-01T10:59:45;18.40;99.90
34829;DHT22;21042;47.620;12.188;2023-08-01T11:02:12;18.60;99.90
34829;DHT22;21042;47.620;12.188;2023-08-01T11:05:04;18.70;99.90
34829;DHT22;21042;47.620;12.188;2023-08-01T11:07:31;19.00;99.90
34829;DHT22;21042;47.620;12.188;2023-08-01T11:10:08;19.30;99.90
34829;DHT22;21042;47.620;12.188;2023-08-01T11:12:40;19.60;99.90
34829;DHT22;21042;47.620;12.188;2023-08-01T11:15:08;19.60;99.90
34829;DHT22;21042;47.620;12.188;2023-08-01T11:17:42;19.50;99.90
34829;DHT22;21042;47.620;12.188;2023-08-01T11:20:11;19.30;99.90
34829;DHT22;21042;47.620;12.188;2023-08-01T11:22:58;19.10;99.90
34829;DHT22;21042;47.620;12.188;2023-08-01T11:25:37;18.90;99.90
34829;DHT22;21042;47.620;12.188;2023-08-01T11:28:12;18.80;99.90
34829;DHT22;21042;47.620;12.188;2023-08-01T11:30:40;18.60;99.90
34829;DHT22;21042;47.620;12.188;2023-08-01T11:33:20;18.50;99.90
34829;DHT22;21042;47.620;12.188;2023-08-01T11:35:54;18.40;99.90
34829;DHT22;21042;47.620;12.188;2023-08-01T11:38:27;18.20;99.90
34829;DHT22;21042;47.620;12.188;2023-08-01T11:41:03;18.20;99.90
34829;DHT22;21042;47.620;12.188;2023-08-01T11:43:43;18.10;99.90
34829;DHT22;21042;47.620;12.188;2023-08-01T11:46:10;18.10;99.90
34829;DHT22;21042;47.620;12.188;2023-08-01T11:48:37;18.00;99.90
34829;DHT22;21042;47.620;12.188;2023-08-01T11:51:04;18.00;99.90
34829;DHT22;21042;47.620;12.188;2023-08-01T11:53:31;18.00;99.90
34829;DHT22;21042;47.620;12.188;2023-08-01T11:56:05;17.90;99.90
34829;DHT22;21042;47.620;12.188;2023-08-01T11:58:35;18.00;99.90
34829;DHT22;21042;47.620;12.188;2023-08-01T12:03:30;18.00;99.90
34829;DHT22;21042;47.620;12.188;2023-08-01T12:06:04;18.00;99.90
34829;DHT22;21042;47.620;12.188;2023-08-01T12:08:34;17.90;99.90
34829;DHT22;21042;47.620;12.188;2023-08-01T12:11:01;17.80;99.90
34829;DHT22;21042;47.620;12.188;2023-08-01T12:13:28;17.70;99.90
34829;DHT22;21042;47.620;12.188;2023-08-01T12:15:55;17.70;99.90
34829;DHT22;21042;47.620;12.188;2023-08-01T12:18:28;17.80;99.90
34829;DHT22;21042;47.620;12.188;2023-08-01T12:20:57;18.00;99.90
34829;DHT22;21042;47.620;12.188;2023-08-01T12:23:24;18.20;99.90
34829;DHT22;21042;47.620;12.188;2023-08-01T12:25:51;18.60;99.90
34829;DHT22;21042;47.620;12.188;2023-08-01T12:28:18;18.80;99.90
34829;DHT22;21042;47.620;12.188;2023-08-01T12:30:44;18.90;99.90
34829;DHT22;21042;47.620;12.188;2023-08-01T12:33:11;18.90;99.90
34829;DHT22;21042;47.620;12.188;2023-08-01T12:35:41;18.80;99.90
34829;DHT22;21042;47.620;12.188;2023-08-01T12:38:09;18.80;99.90
34829;DHT22;21042;47.620;12.188;2023-08-01T12:40:36;18.80;99.90
34829;DHT22;21042;47.620;12.188;2023-08-01T12:43:03;18.90;99.90
34829;DHT22;21042;47.620;12.188;2023-08-01T12:45:29;19.00;99.90
34829;DHT22;21042;47.620;12.188;2023-08-01T12:47:56;19.10;99.90
34829;DHT22;21042;47.620;12.188;2023-08-01T12:50:24;19.20;99.90
34829;DHT22;21042;47.620;12.188;2023-08-01T12:52:52;19.40;99.90
34829;DHT22;21042;47.620;12.188;2023-08-01T12:55:19;19.50;99.90
34829;DHT22;21042;47.620;12.188;2023-08-01T12:57:45;19.50;99.90
34829;DHT22;21042;47.620;12.188;2023-08-01T13:00:12;19.40;99.90
34829;DHT22;21042;47.620;12.188;2023-08-01T13:02:39;19.40;99.90
34829;DHT22;21042;47.620;12.188;2023-08-01T13:05:06;19.40;99.90
34829;DHT22;21042;47.620;12.188;2023-08-01T13:07:33;19.40;99.90
34829;DHT22;21042;47.620;12.188;2023-08-01T13:10:01;19.30;99.90
34829;DHT22;21042;47.620;12.188;2023-08-01T13:12:27;19.40;99.90
34829;DHT22;21042;47.620;12.188;2023-08-01T13:14:54;19.40;99.90
34829;DHT22;21042;47.620;12.188;2023-08-01T13:17:38;19.50;99.90
34829;DHT22;21042;47.620;12.188;2023-08-01T13:20:06;19.70;99.90
34829;DHT22;21042;47.620;12.188;2023-08-01T13:22:32;19.90;99.90
34829;DHT22;21042;47.620;12.188;2023-08-01T13:24:59;20.10;99.90
34829;DHT22;21042;47.620;12.188;2023-08-01T13:27:26;20.40;99.90
34829;DHT22;21042;47.620;12.188;2023-08-01T13:29:53;20.70;99.90
34829;DHT22;21042;47.620;12.188;2023-08-01T13:32:20;21.00;99.90
34829;DHT22;21042;47.620;12.188;2023-08-01T13:34:47;21.00;99.90
34829;DHT22;21042;47.620;12.188;2023-08-01T13:37:14;20.90;99.90
34829;DHT22;21042;47.620;12.188;2023-08-01T13:39:41;21.10;99.90
34829;DHT22;21042;47.620;12.188;2023-08-01T13:42:08;21.30;99.90
34829;DHT22;21042;47.620;12.188;2023-08-01T13:44:35;21.80;99.90
34829;DHT22;21042;47.620;12.188;2023-08-01T13:47:02;22.30;99.90
34829;DHT22;21042;47.620;12.188;2023-08-01T13:49:30;21.90;99.90
34829;DHT22;21042;47.620;12.188;2023-08-01T13:51:57;21.50;99.90
34829;DHT22;21042;47.620;12.188;2023-08-01T13:54:23;21.20;99.90
34829;DHT22;21042;47.620;12.188;2023-08-01T13:56:50;21.10;99.90
34829;DHT22;21042;47.620;12.188;2023-08-01T13:59:18;21.10;99.90
34829;DHT22;21042;47.620;12.188;2023-08-01T14:01:46;21.30;99.90
34829;DHT22;21042;47.620;12.188;2023-08-01T14:04:13;21.70;99.90
34829;DHT22;21042;47.620;12.188;2023-08-01T14:06:42;21.90;99.90
34829;DHT22;21042;47.620;12.188;2023-08-01T14:09:10;21.90;99.90
34829;DHT22;21042;47.620;12.188;2023-08-01T14:11:38;21.60;99.90
34829;DHT22;21042;47.620;12.188;2023-08-01T14:14:05;21.20;99.90
34829;DHT22;21042;47.620;12.188;2023-08-01T14:16:32;20.90;99.90
34829;DHT22;21042;47.620;12.188;2023-08-01T14:18:59;20.50;99.90
34829;DHT22;21042;47.620;12.188;2023-08-01T14:21:26;20.30;99.90
34829;DHT22;21042;47.620;12.188;2023-08-01T14:23:53;20.30;99.90
34829;DHT22;21042;47.620;12.188;2023-08-01T14:26:20;20.20;99.90
34829;DHT22;21042;47.620;12.188;2023-08-01T14:28:47;20.20;99.90
34829;DHT22;21042;47.620;12.188;2023-08-01T14:31:14;20.30;99.90
34829;DHT22;21042;47.620;12.188;2023-08-01T14:33:41;20.30;99.90
34829;DHT22;21042;47.620;12.188;2023-08-01T14:36:09;20.20;99.90
34829;DHT22;21042;47.620;12.188;2023-08-01T14:38:39;20.30;99.90
34829;DHT22;21042;47.620;12.188;2023-08-01T14:41:06;20.30;99.90
34829;DHT22;21042;47.620;12.188;2023-08-01T14:43:53;20.30;99.90
34829;DHT22;21042;47.620;12.188;2023-08-01T14:46:20;20.20;99.90
34829;DHT22;21042;47.620;12.188;2023-08-01T14:48:46;20.20;99.90
34829;DHT22;21042;47.620;12.188;2023-08-01T14:51:13;20.30;99.90
34829;DHT22;21042;47.620;12.188;2023-08-01T14:53:40;20.30;99.90
34829;DHT22;21042;47.620;12.188;2023-08-01T14:56:07;20.40;99.90
34829;DHT22;21042;47.620;12.188;2023-08-01T14:58:34;21.00;99.90
34829;DHT22;21042;47.620;12.188;2023-08-01T15:01:15;21.90;99.90
34829;DHT22;21042;47.620;12.188;2023-08-01T15:03:43;22.40;99.90
34829;DHT22;21042;47.620;12.188;2023-08-01T15:06:09;22.10;99.90
34829;DHT22;21042;47.620;12.188;2023-08-01T15:08:38;21.40;99.90
34829;DHT22;21042;47.620;12.188;2023-08-01T15:11:06;21.10;99.90
34829;DHT22;21042;47.620;12.188;2023-08-01T15:13:34;20.90;99.90
34829;DHT22;21042;47.620;12.188;2023-08-01T15:16:01;20.70;99.90
34829;DHT22;21042;47.620;12.188;2023-08-01T15:18:28;20.60;99.90
34829;DHT22;21042;47.620;12.188;2023-08-01T15:20:55;20.60;99.90
34829;DHT22;21042;47.620;12.188;2023-08-01T15:29:28;21.00;99.90
34829;DHT22;21042;47.620;12.188;2023-08-01T15:31:54;21.10;99.90
34829;DHT22;21042;47.620;12.188;2023-08-01T15:34:21;21.00;99.90